Time;durP1;ratioP1;P1;durP2;ratioP2;P2;SDS_P1;SDS_P2;PMS_P1;PMS_P2;Temp;Humidity;BMP_temperature;BMP_pressure;BME280_temperature;BME280_humidity;BME280_pressure;Samples;Min_cycle;Max_cycle;Signal;HPM_P1;HPM_P2
2022/10/15 00:00:46;;;;;;;0.97;0.90;;;;;;;14.18;100.00;97446.34;5094642;28;20262;-64
2022/10/15 00:03:13;;;;;;;1.10;1.00;;;;;;;14.21;100.00;97449.59;5092653;28;20688;-64
2022/10/15 00:05:41;;;;;;;1.10;0.90;;;;;;;14.21;100.00;97441.63;5092739;28;20278;-63
2022/10/15 00:08:08;;;;;;;1.20;1.00;;;;;;;14.24;100.00;97440.50;5094335;28;20596;-65
2022/10/15 00:10:36;;;;;;;1.77;1.00;;;;;;;14.22;100.00;97431.81;5094515;28;20263;-64
2022/10/15 00:13:03;;;;;;;1.00;0.80;;;;;;;14.23;100.00;97439.63;5092555;28;20287;-64
2022/10/15 00:15:32;;;;;;;1.10;1.00;;;;;;;14.24;100.00;97435.16;5092783;28;20267;-64
2022/10/15 00:17:58;;;;;;;1.43;0.90;;;;;;;14.25;100.00;97434.19;5094449;28;20625;-63
2022/10/15 00:20:25;;;;;;;0.70;0.70;;;;;;;14.28;100.00;97431.22;5094133;28;20263;-64
2022/10/15 00:22:51;;;;;;;1.00;0.80;;;;;;;14.28;100.00;97431.22;5092641;28;20589;-64
2022/10/15 00:25:18;;;;;;;0.90;0.70;;;;;;;14.29;100.00;97427.59;5090476;28;20270;-64
2022/10/15 00:27:45;;;;;;;1.63;0.80;;;;;;;14.31;100.00;97425.63;5094054;28;20289;-64
2022/10/15 00:30:12;;;;;;;1.13;0.80;;;;;;;14.32;100.00;97429.97;5094093;28;20256;-64
2022/10/15 00:32:40;;;;;;;0.80;0.70;;;;;;;14.32;100.00;97424.63;5092689;28;20285;-64
2022/10/15 00:35:07;;;;;;;1.43;0.70;;;;;;;14.34;100.00;97420.00;5091971;28;20638;-64
2022/10/15 00:37:34;;;;;;;0.90;0.70;;;;;;;14.36;100.00;97424.19;5091732;28;20262;-64
2022/10/15 00:40:01;;;;;;;0.70;0.67;;;;;;;14.35;100.00;97427.03;5079967;28;20263;-64
2022/10/15 00:42:28;;;;;;;2.57;0.63;;;;;;;14.36;100.00;97426.03;5081829;28;20259;-63
2022/10/15 00:44:57;;;;;;;1.23;0.70;;;;;;;14.38;100.00;97424.91;5083081;28;20270;-64
2022/10/15 00:47:27;;;;;;;2.70;0.53;;;;;;;14.40;100.00;97424.72;5080904;28;20266;-64
2022/10/15 00:50:03;;;;;;;0.73;0.73;;;;;;;14.39;100.00;97418.59;5078923;28;20278;-64
2022/10/15 00:52:39;;;;;;;0.50;0.50;;;;;;;14.40;100.00;97414.09;5083581;28;20493;-64
2022/10/15 00:55:11;;;;;;;0.50;0.43;;;;;;;14.42;100.00;97412.16;5080722;28;20259;-64
2022/10/15 00:57:38;;;;;;;0.80;0.80;;;;;;;14.41;100.00;97413.13;5084055;28;20285;-64
2022/10/15 01:00:09;;;;;;;0.73;0.73;;;;;;;14.44;100.00;97412.84;5081004;28;20272;-64
2022/10/15 01:02:35;;;;;;;0.50;0.47;;;;;;;14.44;100.00;97407.50;5082969;28;20270;-63
2022/10/15 01:05:04;;;;;;;1.23;0.50;;;;;;;14.44;100.00;97405.72;5080596;28;20544;-64
2022/10/15 01:07:31;;;;;;;0.60;0.60;;;;;;;14.47;100.00;97404.53;5080408;28;20681;-64
2022/10/15 01:09:57;;;;;;;0.50;0.50;;;;;;;14.48;100.00;97400.94;5081025;28;20279;-64
2022/10/15 01:12:34;;;;;;;0.70;0.60;;;;;;;14.49;100.00;97397.28;5082805;28;20575;-65
2022/10/15 01:15:08;;;;;;;1.50;0.60;;;;;;;14.48;100.00;97393.78;5080222;28;20687;-66
2022/10/15 01:17:42;;;;;;;1.00;0.60;;;;;;;14.50;100.00;97388.31;5078556;28;20654;-64
2022/10/15 01:20:49;;;;;;;0.60;0.40;;;;;;;14.50;100.00;97399.81;5083721;28;20254;-66
2022/10/15 01:23:57;;;;;;;0.40;0.40;;;;;;;14.56;100.00;97393.03;5078924;28;20266;-66
2022/10/15 01:26:55;;;;;;;1.13;0.60;;;;;;;14.57;100.00;97384.06;5069969;28;20269;-65
2022/10/15 01:29:38;;;;;;;0.50;0.43;;;;;;;14.53;100.00;97386.19;5093034;28;20658;-64
2022/10/15 01:32:12;;;;;;;0.73;0.50;;;;;;;14.58;100.00;97380.44;5090526;28;20269;-65
2022/10/15 01:34:47;;;;;;;0.83;0.60;;;;;;;14.56;100.00;97382.41;5093142;28;20581;-65
2022/10/15 01:37:19;;;;;;;0.50;0.50;;;;;;;14.58;100.00;97385.75;5093197;28;20257;-65
2022/10/15 01:39:52;;;;;;;0.37;0.37;;;;;;;14.55;100.00;97375.41;5089630;28;20624;-66
2022/10/15 01:42:25;;;;;;;0.93;0.40;;;;;;;14.56;100.00;97377.09;5078436;28;20270;-66
2022/10/15 01:44:58;;;;;;;1.73;0.57;;;;;;;14.53;100.00;97375.56;5080369;28;20262;-68
2022/10/15 01:47:33;;;;;;;0.67;0.60;;;;;;;14.55;100.00;97364.78;5081727;28;20263;-68
2022/10/15 01:50:02;;;;;;;0.40;0.40;;;;;;;14.57;100.00;97365.47;5080873;28;20315;-68
2022/10/15 01:52:32;;;;;;;0.57;0.40;;;;;;;14.62;100.00;97358.72;5084988;28;20511;-68
2022/10/15 01:55:00;;;;;;;0.60;0.60;;;;;;;14.65;100.00;97354.91;5083892;28;20269;-68
2022/10/15 01:57:30;;;;;;;1.20;0.40;;;;;;;14.66;100.00;97356.59;5094316;28;20277;-69
2022/10/15 01:59:57;;;;;;;1.30;0.40;;;;;;;14.65;100.00;97365.53;5083869;28;20270;-69
2022/10/15 02:02:24;;;;;;;1.27;0.47;;;;;;;14.66;100.00;97357.41;5083804;28;20225;-69
2022/10/15 02:04:52;;;;;;;1.40;0.50;;;;;;;14.68;100.00;97354.63;5083701;28;20304;-69
2022/10/15 02:07:31;;;;;;;1.30;0.67;;;;;;;14.62;100.00;97360.53;5087090;28;20227;-69
2022/10/15 02:10:08;;;;;;;0.70;0.40;;;;;;;14.66;100.00;97361.91;5082231;28;20307;-69
2022/10/15 02:12:48;;;;;;;1.57;0.50;;;;;;;14.69;100.00;97367.78;5083642;28;20263;-68
2022/10/15 02:15:18;;;;;;;1.53;0.40;;;;;;;14.75;100.00;97366.31;5093066;28;20263;-68
2022/10/15 02:17:55;;;;;;;1.43;0.40;;;;;;;14.74;100.00;97359.34;5096580;28;20228;-70
2022/10/15 02:20:28;;;;;;;2.27;0.50;;;;;;;14.77;100.00;97359.03;5096473;28;20280;-68
2022/10/15 02:22:59;;;;;;;3.53;0.53;;;;;;;14.75;100.00;97359.19;5093956;28;20258;-69
2022/10/15 02:25:28;;;;;;;0.87;0.50;;;;;;;14.75;100.00;97371.66;5095972;28;20266;-69
2022/10/15 02:27:57;;;;;;;1.80;0.40;;;;;;;14.74;100.00;97365.47;5096448;28;20673;-69
2022/10/15 02:30:25;;;;;;;0.57;0.50;;;;;;;14.74;100.00;97367.31;5096297;28;20278;-69
2022/10/15 02:32:56;;;;;;;0.40;0.40;;;;;;;14.73;100.00;97376.28;5092907;28;20259;-68
2022/10/15 02:35:26;;;;;;;0.30;0.30;;;;;;;14.76;100.00;97375.97;5081361;28;20275;-68
2022/10/15 02:37:57;;;;;;;0.30;0.30;;;;;;;14.79;100.00;97373.03;5083175;28;20254;-69
2022/10/15 02:40:28;;;;;;;1.20;0.40;;;;;;;14.79;100.00;97383.69;5083530;28;20226;-69
2022/10/15 02:42:55;;;;;;;0.80;0.50;;;;;;;14.78;100.00;97384.66;5085124;28;20259;-68
2022/10/15 02:45:22;;;;;;;0.40;0.40;;;;;;;14.81;100.00;97373.72;5082885;28;20231;-66
2022/10/15 02:47:48;;;;;;;0.50;0.50;;;;;;;14.83;100.00;97377.91;5082875;28;20593;-65
2022/10/15 02:50:15;;;;;;;0.40;0.40;;;;;;;14.82;100.00;97375.38;5083560;28;20243;-65
2022/10/15 02:52:43;;;;;;;0.30;0.30;;;;;;;14.80;100.00;97374.69;5085538;28;20263;-65
2022/10/15 02:55:10;;;;;;;0.30;0.30;;;;;;;14.84;100.00;97381.41;5082876;28;20263;-65
2022/10/15 02:57:36;;;;;;;0.80;0.40;;;;;;;14.88;100.00;97382.75;5085819;28;20263;-65
2022/10/15 03:00:04;;;;;;;2.00;0.57;;;;;;;14.87;100.00;97378.44;5081267;28;20225;-65
2022/10/15 03:02:31;;;;;;;0.70;0.50;;;;;;;14.87;100.00;97381.94;5084291;28;20232;-64
2022/10/15 03:04:58;;;;;;;0.50;0.33;;;;;;;14.89;100.00;97381.75;5082663;28;20286;-65
2022/10/15 03:07:24;;;;;;;1.33;0.60;;;;;;;14.93;100.00;97383.16;5091706;28;20229;-65
2022/10/15 03:09:52;;;;;;;0.43;0.43;;;;;;;14.95;100.00;97386.47;5095209;28;20290;-65
2022/10/15 03:12:22;;;;;;;0.30;0.30;;;;;;;14.97;100.00;97393.34;5092555;28;20265;-65
2022/10/15 03:14:49;;;;;;;0.23;0.23;;;;;;;14.97;100.00;97387.19;5095420;28;20277;-66
2022/10/15 03:17:15;;;;;;;0.43;0.30;;;;;;;14.97;100.00;97390.66;5095329;28;20677;-65
2022/10/15 03:19:42;;;;;;;2.20;0.50;;;;;;;14.99;100.00;97385.22;5094956;28;20267;-63
2022/10/15 03:22:09;;;;;;;0.47;0.30;;;;;;;14.99;100.00;97393.19;5092424;28;20288;-64
2022/10/15 03:24:35;;;;;;;1.37;0.40;;;;;;;14.99;100.00;97390.53;5095185;28;20647;-63
2022/10/15 03:27:04;;;;;;;1.67;0.63;;;;;;;14.98;100.00;97387.00;5093551;28;20258;-64
2022/10/15 03:29:30;;;;;;;0.40;0.40;;;;;;;15.00;100.00;97386.88;5094999;28;20282;-64
2022/10/15 03:31:57;;;;;;;0.50;0.40;;;;;;;15.01;100.00;97377.91;5091870;28;20264;-64
2022/10/15 03:34:23;;;;;;;0.50;0.50;;;;;;;15.00;100.00;97376.22;5095084;28;20529;-64
2022/10/15 03:36:50;;;;;;;0.70;0.33;;;;;;;14.99;100.00;97385.22;5094997;28;20271;-65
2022/10/15 03:39:17;;;;;;;1.77;0.40;;;;;;;15.00;100.00;97386.88;5095193;28;20338;-64
2022/10/15 03:41:43;;;;;;;0.40;0.40;;;;;;;15.00;100.00;97397.53;5091420;28;20270;-64
2022/10/15 03:44:11;;;;;;;0.50;0.30;;;;;;;14.99;100.00;97391.38;5082019;28;20268;-64
2022/10/15 03:46:38;;;;;;;0.50;0.40;;;;;;;14.99;100.00;97395.84;5082072;28;20268;-64
2022/10/15 03:49:05;;;;;;;0.97;0.40;;;;;;;14.97;100.00;97401.31;5081877;28;20664;-64
2022/10/15 03:51:32;;;;;;;0.40;0.40;;;;;;;14.98;100.00;97394.19;5084944;28;20635;-65
2022/10/15 03:53:58;;;;;;;1.37;0.50;;;;;;;15.00;100.00;97408.16;5080288;28;20264;-65
2022/10/15 03:56:25;;;;;;;0.40;0.30;;;;;;;14.98;100.00;97408.31;5087345;28;20257;-65
2022/10/15 03:58:52;;;;;;;0.30;0.30;;;;;;;14.99;100.00;97412.66;5094654;28;20308;-65
2022/10/15 04:01:20;;;;;;;0.30;0.30;;;;;;;15.02;100.00;97416.84;5091575;28;20229;-65
2022/10/15 04:03:46;;;;;;;1.63;0.50;;;;;;;15.00;100.00;97413.47;5094095;28;20263;-65
2022/10/15 04:06:13;;;;;;;0.53;0.30;;;;;;;14.95;100.00;97405.09;5094519;28;20255;-66
2022/10/15 04:08:40;;;;;;;2.00;0.40;;;;;;;14.95;100.00;97405.97;5094555;28;20267;-66
2022/10/15 04:11:07;;;;;;;1.27;0.60;;;;;;;14.97;100.00;97411.13;5091639;28;20708;-66
2022/10/15 04:13:33;;;;;;;5.80;0.60;;;;;;;14.97;100.00;97403.97;5093306;28;20258;-66
2022/10/15 04:16:00;;;;;;;0.83;0.50;;;;;;;14.97;100.00;97408.47;5094242;28;20256;-67
2022/10/15 04:18:28;;;;;;;2.03;0.47;;;;;;;15.01;100.00;97407.16;5092492;28;20587;-68
2022/10/15 04:20:58;;;;;;;1.53;0.50;;;;;;;15.05;100.00;97416.53;5091802;28;20285;-68
2022/10/15 04:23:24;;;;;;;1.47;0.50;;;;;;;15.05;100.00;97413.88;5093675;28;20258;-68
2022/10/15 04:25:51;;;;;;;0.60;0.40;;;;;;;15.06;100.00;97419.06;5094411;28;20272;-68
2022/10/15 04:28:18;;;;;;;0.30;0.30;;;;;;;15.08;100.00;97422.41;5094254;28;20290;-68
2022/10/15 04:30:44;;;;;;;0.40;0.40;;;;;;;15.10;100.00;97424.91;5091683;28;20281;-69
2022/10/15 04:33:11;;;;;;;0.77;0.40;;;;;;;15.08;100.00;97430.38;5092596;28;20584;-69
2022/10/15 04:35:39;;;;;;;0.43;0.30;;;;;;;15.09;100.00;97423.25;5093783;28;20229;-70
2022/10/15 04:38:05;;;;;;;0.40;0.30;;;;;;;15.09;100.00;97428.56;5093950;28;20265;-68
2022/10/15 04:40:32;;;;;;;0.53;0.40;;;;;;;15.10;100.00;97423.06;5091936;28;20259;-68
2022/10/15 04:42:59;;;;;;;1.10;0.40;;;;;;;15.09;100.00;97433.88;5092338;28;20266;-69
2022/10/15 04:45:25;;;;;;;0.60;0.47;;;;;;;15.08;100.00;97432.19;5092037;28;20273;-68
2022/10/15 04:47:52;;;;;;;0.30;0.30;;;;;;;15.07;100.00;97430.50;5093770;28;20265;-68
2022/10/15 04:50:18;;;;;;;0.33;0.33;;;;;;;15.06;100.00;97424.38;5091998;28;20283;-68
2022/10/15 04:52:47;;;;;;;0.33;0.33;;;;;;;15.06;100.00;97429.69;5091583;28;20348;-68
2022/10/15 04:55:14;;;;;;;0.83;0.50;;;;;;;15.06;100.00;97439.50;5093587;28;20224;-68
2022/10/15 04:57:40;;;;;;;1.37;0.50;;;;;;;15.05;100.00;97449.31;5087306;28;20251;-68
2022/10/15 05:00:08;;;;;;;1.10;0.30;;;;;;;15.01;100.00;97441.75;5092333;28;20255;-68
2022/10/15 05:02:35;;;;;;;0.30;0.30;;;;;;;15.00;100.00;97450.75;5091431;28;20588;-68
2022/10/15 05:05:01;;;;;;;0.50;0.40;;;;;;;14.99;100.00;97449.06;5093715;28;20271;-68
2022/10/15 05:07:28;;;;;;;1.50;0.40;;;;;;;14.98;100.00;97453.53;5093502;28;20269;-68
2022/10/15 05:09:56;;;;;;;0.50;0.50;;;;;;;14.97;100.00;97451.88;5090711;28;20612;-68
2022/10/15 05:12:23;;;;;;;0.40;0.40;;;;;;;14.98;100.00;97442.06;5090932;28;20632;-68
2022/10/15 05:14:49;;;;;;;0.67;0.67;;;;;;;14.97;100.00;97451.06;5093487;28;20224;-71
2022/10/15 05:17:16;;;;;;;0.50;0.47;;;;;;;14.98;100.00;97458.03;5093229;28;20269;-68
2022/10/15 05:19:42;;;;;;;2.10;1.03;;;;;;;14.99;100.00;97457.91;5092666;28;20263;-68
2022/10/15 05:22:09;;;;;;;1.40;1.30;;;;;;;15.03;100.00;97467.25;5090786;28;20311;-68
2022/10/15 05:24:36;;;;;;;0.80;0.73;;;;;;;15.04;100.00;97462.78;5093296;28;20274;-68
2022/10/15 05:27:04;;;;;;;1.13;0.53;;;;;;;15.04;100.00;97473.41;5099502;28;20259;-68
2022/10/15 05:29:30;;;;;;;0.80;0.50;;;;;;;15.06;100.00;97474.09;5099410;28;22625;-68
2022/10/15 05:31:57;;;;;;;0.60;0.50;;;;;;;15.08;100.00;97474.78;5096799;28;20323;-69
2022/10/15 05:34:25;;;;;;;0.43;0.43;;;;;;;15.10;100.00;97475.47;5100089;28;20270;-68
2022/10/15 05:36:52;;;;;;;0.50;0.40;;;;;;;15.11;100.00;97483.31;5098543;28;20228;-68
2022/10/15 05:39:19;;;;;;;0.53;0.50;;;;;;;15.11;100.00;97491.31;5090558;28;20626;-69
2022/10/15 05:41:45;;;;;;;0.90;0.50;;;;;;;15.13;100.00;97488.47;5089956;28;20264;-68
2022/10/15 05:44:13;;;;;;;0.50;0.50;;;;;;;15.07;100.00;97495.25;5086852;28;20290;-68
2022/10/15 05:46:40;;;;;;;0.50;0.50;;;;;;;15.06;100.00;97503.38;5086818;28;20225;-68
2022/10/15 05:49:07;;;;;;;0.67;0.60;;;;;;;15.04;100.00;97505.34;5086805;28;20229;-68
2022/10/15 05:51:33;;;;;;;0.83;0.80;;;;;;;15.02;100.00;97507.34;5095917;28;20668;-69
2022/10/15 05:54:00;;;;;;;1.70;0.80;;;;;;;15.01;100.00;97500.31;5099598;28;20224;-67
2022/10/15 05:56:27;;;;;;;0.90;0.60;;;;;;;15.02;100.00;97496.69;5092906;28;20531;-68
2022/10/15 05:58:54;;;;;;;0.87;0.77;;;;;;;15.01;100.00;97500.31;5095308;28;20260;-69
2022/10/15 06:01:22;;;;;;;2.27;0.70;;;;;;;15.00;100.00;97503.97;5096108;28;20222;-68
2022/10/15 06:03:48;;;;;;;0.80;0.70;;;;;;;15.00;100.00;97517.28;5085163;28;20286;-70
2022/10/15 06:06:17;;;;;;;0.97;0.70;;;;;;;15.01;100.00;97522.44;5099640;28;20264;-68
2022/10/15 06:08:44;;;;;;;3.37;0.67;;;;;;;15.03;100.00;97525.78;5099626;28;20342;-68
2022/10/15 06:11:11;;;;;;;1.23;0.70;;;;;;;15.05;100.00;97518.53;5095876;28;20336;-68
2022/10/15 06:13:39;;;;;;;0.63;0.50;;;;;;;15.06;100.00;97524.66;5086453;28;20264;-68
2022/10/15 06:16:06;;;;;;;1.07;0.73;;;;;;;15.08;100.00;97530.66;5086482;28;20229;-70
2022/10/15 06:18:34;;;;;;;0.67;0.57;;;;;;;15.11;100.00;97533.03;5086638;28;20260;-68
2022/10/15 06:21:01;;;;;;;0.73;0.60;;;;;;;15.13;100.00;97534.56;5089758;28;20284;-68
2022/10/15 06:23:28;;;;;;;0.60;0.60;;;;;;;15.13;100.00;97536.38;5086383;28;20263;-69
2022/10/15 06:25:54;;;;;;;0.80;0.63;;;;;;;15.16;100.00;97546.75;5086508;28;20261;-69
2022/10/15 06:28:21;;;;;;;1.23;0.60;;;;;;;15.17;100.00;97543.09;5084718;28;20267;-69
2022/10/15 06:30:47;;;;;;;1.37;0.70;;;;;;;15.19;100.00;97551.75;5089254;28;20318;-69
2022/10/15 06:33:15;;;;;;;1.37;0.60;;;;;;;15.20;100.00;97553.44;5086642;28;20411;-69
2022/10/15 06:35:43;;;;;;;0.80;0.70;;;;;;;15.21;100.00;97560.47;5086333;28;20229;-69
2022/10/15 06:38:10;;;;;;;0.80;0.60;;;;;;;15.24;100.00;97558.34;5083672;28;20259;-69
2022/10/15 06:40:37;;;;;;;1.20;0.83;;;;;;;15.29;100.00;97568.53;5086052;28;20230;-69
2022/10/15 06:43:06;;;;;;;0.77;0.60;;;;;;;15.32;100.00;97578.88;5083783;28;20621;-69
2022/10/15 06:45:35;;;;;;;1.27;0.70;;;;;;;15.34;100.00;97587.59;5083060;28;20226;-69
2022/10/15 06:48:03;;;;;;;1.90;0.80;;;;;;;15.32;100.00;97592.19;5083064;28;20286;-69
2022/10/15 06:50:30;;;;;;;0.80;0.77;;;;;;;15.32;100.00;97589.50;5086325;28;20253;-70
2022/10/15 06:52:58;;;;;;;0.70;0.70;;;;;;;15.36;100.00;97590.94;5092740;28;20225;-68
2022/10/15 06:55:24;;;;;;;2.47;0.80;;;;;;;15.38;100.00;97595.13;5082280;28;20275;-68
2022/10/15 06:57:51;;;;;;;1.63;1.00;;;;;;;15.41;100.00;97591.34;5084102;28;20275;-70
2022/10/15 07:00:18;;;;;;;0.77;0.73;;;;;;;15.43;100.00;97606.19;5085696;28;20267;-69
2022/10/15 07:02:44;;;;;;;0.87;0.80;;;;;;;15.46;100.00;97602.38;5083011;28;20267;-70
2022/10/15 07:05:11;;;;;;;0.70;0.70;;;;;;;15.48;100.00;97605.72;5082610;28;20307;-69
2022/10/15 07:07:37;;;;;;;1.33;0.90;;;;;;;15.54;100.00;97621.13;5082633;28;20265;-69
2022/10/15 07:10:06;;;;;;;0.80;0.70;;;;;;;15.57;100.00;97616.34;5084976;28;20298;-69
2022/10/15 07:12:33;;;;;;;0.70;0.70;;;;;;;15.60;100.00;97626.69;5083138;28;20260;-71
2022/10/15 07:14:59;;;;;;;0.73;0.73;;;;;;;15.58;100.00;97619.84;5082540;28;20268;-69
2022/10/15 07:17:26;;;;;;;1.07;0.70;;;;;;;15.59;100.00;97629.50;5082500;28;20283;-69
2022/10/15 07:19:53;;;;;;;0.80;0.80;;;;;;;15.60;100.00;97632.03;5090531;28;20623;-69
2022/10/15 07:22:19;;;;;;;1.30;1.00;;;;;;;15.64;100.00;97637.91;5080441;28;20288;-71
2022/10/15 07:24:46;;;;;;;2.50;0.80;;;;;;;15.67;100.00;97643.75;5080805;28;20335;-70
2022/10/15 07:27:14;;;;;;;1.17;0.67;;;;;;;15.69;100.00;97639.13;5080670;28;20264;-70
2022/10/15 07:29:40;;;;;;;2.00;1.00;;;;;;;15.74;100.00;97634.19;5082907;28;20267;-71
2022/10/15 07:32:07;;;;;;;0.93;0.83;;;;;;;15.81;100.00;97639.72;5081913;28;20311;-71
2022/10/15 07:34:34;;;;;;;1.10;1.00;;;;;;;15.89;100.00;97634.50;5080679;28;20265;-70
2022/10/15 07:37:00;;;;;;;1.00;0.90;;;;;;;16.02;100.00;97641.97;5080552;28;20272;-71
2022/10/15 07:39:27;;;;;;;1.03;0.80;;;;;;;16.13;100.00;97646.25;5082277;28;20280;-71
2022/10/15 07:41:54;;;;;;;1.40;0.90;;;;;;;16.25;100.00;97659.22;5082306;28;20595;-72
2022/10/15 07:44:21;;;;;;;0.73;0.73;;;;;;;16.34;100.00;97663.59;5080585;28;20265;-72
2022/10/15 07:46:48;;;;;;;3.63;0.80;;;;;;;16.39;100.00;97663.22;5078747;28;20266;-70
2022/10/15 07:49:15;;;;;;;1.20;0.87;;;;;;;16.28;100.00;97663.41;5081124;28;20262;-73
2022/10/15 07:51:42;;;;;;;1.10;0.90;;;;;;;16.25;100.00;97669.88;5082434;28;20251;-73
2022/10/15 07:54:09;;;;;;;1.20;0.90;;;;;;;16.22;100.00;97670.16;5080294;28;20296;-73
2022/10/15 07:56:36;;;;;;;1.50;0.90;;;;;;;16.20;100.00;97674.81;5088694;28;20793;-71
2022/10/15 07:59:02;;;;;;;0.70;0.70;;;;;;;16.16;100.00;97678.75;5092311;28;20266;-71
2022/10/15 08:01:30;;;;;;;1.00;0.90;;;;;;;16.15;100.00;97679.75;5090729;28;20258;-73
2022/10/15 08:03:57;;;;;;;2.00;0.97;;;;;;;16.08;100.00;97679.69;5093183;28;20261;-73
2022/10/15 08:06:23;;;;;;;1.10;1.00;;;;;;;16.03;100.00;97688.97;5093173;28;20607;-73
2022/10/15 08:08:50;;;;;;;0.70;0.70;;;;;;;16.01;100.00;97699.94;5083935;28;20265;-74
2022/10/15 08:11:17;;;;;;;1.40;0.70;;;;;;;16.01;100.00;97699.94;5083054;28;20242;-73
2022/10/15 08:13:45;;;;;;;1.37;0.80;;;;;;;15.98;100.00;97691.22;5078281;28;20347;-73
2022/10/15 08:16:14;;;;;;;1.97;1.03;;;;;;;15.94;100.00;97698.88;5080010;28;20310;-73
2022/10/15 08:18:43;;;;;;;1.03;0.97;;;;;;;15.90;100.00;97694.81;5080656;28;20549;-74
2022/10/15 08:21:11;;;;;;;2.37;0.87;;;;;;;15.83;100.00;97697.22;5081827;28;20554;-74
2022/10/15 08:23:37;;;;;;;1.50;0.80;;;;;;;15.81;100.00;97693.88;5078853;28;20278;-70
2022/10/15 08:26:04;;;;;;;1.93;0.80;;;;;;;15.82;100.00;97690.22;5077561;28;20636;-73
2022/10/15 08:28:33;;;;;;;1.43;0.90;;;;;;;15.84;100.00;97693.59;5079101;28;20265;-72
2022/10/15 08:31:00;;;;;;;1.20;0.87;;;;;;;15.87;100.00;97692.44;5082005;28;20577;-72
2022/10/15 08:33:27;;;;;;;0.80;0.80;;;;;;;15.92;100.00;97696.34;5079604;28;20264;-73
2022/10/15 08:35:56;;;;;;;1.33;0.97;;;;;;;15.92;100.00;97695.50;5079506;28;20686;-73
2022/10/15 08:38:23;;;;;;;0.73;0.73;;;;;;;15.95;100.00;97700.53;5092554;28;20260;-72
2022/10/15 08:40:53;;;;;;;1.63;0.80;;;;;;;16.00;100.00;97698.28;5088560;28;20223;-73
2022/10/15 08:43:25;;;;;;;0.77;0.70;;;;;;;16.06;100.00;97697.66;5092322;28;20276;-73
2022/10/15 08:45:57;;;;;;;1.30;0.80;;;;;;;16.12;100.00;97711.22;5092267;28;20264;-72
2022/10/15 08:48:30;;;;;;;1.00;0.90;;;;;;;16.13;100.00;97711.06;5089845;28;20258;-72
2022/10/15 08:51:02;;;;;;;1.10;1.00;;;;;;;16.15;100.00;97714.41;5091978;28;20292;-72
2022/10/15 08:53:30;;;;;;;1.00;0.90;;;;;;;16.18;100.00;97710.63;5092215;28;20257;-73
2022/10/15 08:56:03;;;;;;;1.10;1.00;;;;;;;16.18;100.00;97716.81;5086744;28;20261;-73
2022/10/15 08:58:42;;;;;;;3.50;1.03;;;;;;;16.20;100.00;97717.47;5089292;28;20268;-72
2022/10/15 09:01:17;;;;;;;0.87;0.87;;;;;;;16.18;100.00;97714.13;5091350;28;20287;-72
2022/10/15 09:03:52;;;;;;;3.23;1.20;;;;;;;16.16;100.00;97705.44;5092079;28;20229;-73
2022/10/15 09:06:26;;;;;;;1.33;0.90;;;;;;;16.20;100.00;97706.81;5087029;28;20273;-73
2022/10/15 09:09:02;;;;;;;1.70;0.90;;;;;;;16.23;100.00;97711.88;5092316;28;20348;-74
2022/10/15 09:11:44;;;;;;;1.40;1.00;;;;;;;16.26;100.00;97716.03;5091915;28;20286;-73
2022/10/15 09:14:15;;;;;;;0.80;0.80;;;;;;;16.28;100.00;97716.72;5088737;28;20268;-73
2022/10/15 09:16:44;;;;;;;1.00;0.90;;;;;;;16.27;100.00;97713.22;5091982;28;20260;-73
2022/10/15 09:19:16;;;;;;;0.93;0.90;;;;;;;16.31;100.00;97721.75;5091895;28;20266;-73
2022/10/15 09:21:45;;;;;;;0.90;0.90;;;;;;;16.36;100.00;97717.66;5091856;28;20285;-73
2022/10/15 09:24:16;;;;;;;1.03;0.93;;;;;;;16.40;100.00;97719.03;5080745;28;20269;-73
2022/10/15 09:26:55;;;;;;;1.10;1.00;;;;;;;16.42;100.00;97711.75;5079134;28;20261;-73
2022/10/15 09:29:29;;;;;;;1.50;1.10;;;;;;;16.51;100.00;97716.16;5079218;28;20262;-73
2022/10/15 09:32:06;;;;;;;1.13;1.00;;;;;;;16.59;100.00;97724.22;5085187;28;20600;-72
2022/10/15 09:34:40;;;;;;;1.30;1.00;;;;;;;16.66;100.00;97725.31;5078043;28;20262;-72
2022/10/15 09:37:16;;;;;;;2.67;1.30;;;;;;;16.75;100.00;97735.06;5078970;28;20260;-73
2022/10/15 09:40:07;;;;;;;2.37;1.20;;;;;;;16.77;100.00;97737.56;5088363;28;20600;-73
2022/10/15 09:42:38;;;;;;;1.20;1.10;;;;;;;16.83;100.00;97732.44;5091740;28;20268;-73
2022/10/15 09:45:09;;;;;;;1.73;1.13;;;;;;;16.87;100.00;97741.84;5091754;28;20261;-72
2022/10/15 09:47:37;;;;;;;2.40;1.30;;;;;;;16.99;100.00;97743.25;5088326;28;20266;-71
2022/10/15 09:50:08;;;;;;;2.43;1.73;;;;;;;17.06;100.00;97738.97;5091618;28;20222;-72
2022/10/15 09:52:54;;;;;;;2.47;1.60;;;;;;;17.11;100.00;97736.69;5091516;28;20329;-73
2022/10/15 09:55:35;;;;;;;1.70;1.10;;;;;;;17.11;100.00;97739.34;5088779;28;20269;-73
2022/10/15 09:58:04;;;;;;;1.30;0.93;;;;;;;17.02;100.00;97742.94;5078930;28;20266;-75
2022/10/15 10:00:56;;;;;;;1.10;1.00;;;;;;;16.89;100.00;97744.34;5077237;28;20285;-73
2022/10/15 10:03:25;;;;;;;1.00;0.90;;;;;;;16.97;100.00;97745.25;5088432;28;20270;-74
2022/10/15 10:06:00;;;;;;;0.93;0.90;;;;;;;17.01;100.00;97751.13;5091382;28;20521;-74
2022/10/15 10:08:33;;;;;;;1.83;0.90;;;;;;;17.11;100.00;97750.03;5091433;28;20264;-73
2022/10/15 10:11:02;;;;;;;1.17;1.00;;;;;;;17.36;100.00;97748.34;5088747;28;20301;-78
2022/10/15 10:13:33;;;;;;;0.87;0.83;;;;;;;17.54;100.00;97750.03;5094184;28;20272;-75
2022/10/15 10:16:04;;;;;;;0.80;0.80;;;;;;;17.69;100.00;97748.41;5095126;28;20285;-76
2022/10/15 10:18:32;;;;;;;1.27;0.80;;;;;;;17.85;100.00;97748.50;5095107;28;20265;-76
2022/10/15 10:21:01;;;;;;;0.87;0.73;;;;;;;17.97;100.00;97755.25;5091231;28;20255;-75
2022/10/15 10:23:34;;;;;;;0.90;0.87;;;;;;;18.06;100.00;97751.63;5082189;28;20638;-76
2022/10/15 10:26:03;;;;;;;0.60;0.60;;;;;;;18.12;100.00;97760.81;5080617;28;20267;-76
2022/10/15 10:28:35;;;;;;;0.70;0.67;;;;;;;18.06;100.00;97761.47;5083024;28;20268;-76
2022/10/15 10:31:05;;;;;;;1.40;0.70;;;;;;;17.97;100.00;97755.25;5084155;28;20266;-76
2022/10/15 10:33:35;;;;;;;0.93;0.90;;;;;;;17.93;100.00;97761.09;5082134;28;20274;-76
2022/10/15 10:36:03;;;;;;;0.90;0.90;;;;;;;17.97;100.00;97757.94;5084070;28;20335;-76
2022/10/15 10:38:34;;;;;;;1.23;0.73;;;;;;;18.00;100.00;97762.13;5085903;28;20270;-77
2022/10/15 10:41:05;;;;;;;1.47;0.60;;;;;;;18.28;100.00;97763.56;5082995;28;20224;-77
2022/10/15 10:43:34;;;;;;;0.47;0.47;;;;;;;18.61;100.00;97763.53;5082016;28;20227;-77
2022/10/15 10:46:02;;;;;;;0.50;0.50;;;;;;;18.93;100.00;97752.84;5082202;28;20227;-76
2022/10/15 10:56:09;;;;;;;1.70;0.40;;;;;;;18.70;100.00;97749.13;5736191;23;20335;-85
2022/10/15 10:58:41;;;;;;;1.07;0.50;;;;;;;18.54;100.00;97769.69;4987322;28;20323;-86
2022/10/15 11:01:14;;;;;;;0.40;0.40;;;;;;;18.32;100.00;97765.78;5018297;28;20229;-84
2022/10/15 11:03:43;;;;;;;1.17;0.50;;;;;;;18.17;100.00;97759.34;5018008;28;20319;-83
2022/10/15 11:06:46;;;;;;;0.60;0.57;;;;;;;18.19;100.00;97757.34;5018122;28;20295;-82
2022/10/15 11:09:29;;;;;;;1.57;0.50;;;;;;;18.27;100.00;97759.19;5008336;28;20278;-79
2022/10/15 11:12:10;;;;;;;0.50;0.50;;;;;;;18.44;100.00;97751.09;5017793;28;20284;-79
2022/10/15 11:14:47;;;;;;;0.70;0.63;;;;;;;18.82;100.00;97761.19;5006165;28;20264;-80
2022/10/15 11:17:23;;;;;;;2.20;0.53;;;;;;;19.06;100.00;97753.16;5017776;28;20255;-80
2022/10/15 11:19:59;;;;;;;2.17;0.50;;;;;;;19.32;100.00;97748.50;5016045;28;20264;-79
2022/10/15 11:22:43;;;;;;;0.50;0.50;;;;;;;19.54;100.00;97742.44;5005411;28;20232;-79
2022/10/15 11:25:22;;;;;;;1.50;0.50;;;;;;;19.49;100.00;97731.38;5017115;28;20267;-78
2022/10/15 11:28:05;;;;;;;1.43;0.67;;;;;;;19.46;100.00;97734.41;5017604;28;20295;-78
2022/10/15 11:30:42;;;;;;;2.73;0.70;;;;;;;19.55;100.00;97725.34;5003698;28;20225;-80
2022/10/15 11:33:25;;;;;;;0.77;0.70;;;;;;;19.61;100.00;97730.00;5017482;28;20598;-78
2022/10/15 11:36:02;;;;;;;0.63;0.50;;;;;;;19.73;100.00;97731.31;5014998;28;20271;-78
2022/10/15 11:38:39;;;;;;;0.87;0.60;;;;;;;19.75;100.00;97729.28;5017358;28;20240;-78
2022/10/15 11:41:22;;;;;;;1.90;0.50;;;;;;;19.79;100.00;97721.72;5017319;28;20601;-78
2022/10/15 11:44:00;;;;;;;2.37;0.60;;;;;;;19.72;96.89;97700.16;5015532;28;20260;-78